Time,TemperatureF,DewpointF,PressureIn,WindDirection,WindDirectionDegrees,WindSpeedMPH,WindSpeedGustMPH,Humidity,HourlyPrecipIn,Conditions,Clouds,dailyrainin,SoftwareType,DateUTC
2013-05-22 00:00:00,56.9,55.2,29.65,East,83,4.0,5.0,94,0.00,,---,0.48,VWS V14.01,2013-05-22 04:00:00,
2013-05-22 00:01:00,56.9,55.2,29.65,East,81,3.0,4.0,94,0.00,,---,0.00,VWS V14.01,2013-05-22 04:01:00,
2013-05-22 00:06:00,56.8,55.1,29.65,East,86,6.0,6.0,94,0.00,,---,0.00,VWS V14.01,2013-05-22 04:06:00,
2013-05-22 00:11:00,56.8,55.1,29.65,East,92,5.0,6.0,94,0.00,,---,0.00,VWS V14.01,2013-05-22 04:11:00,
2013-05-22 00:16:00,56.8,55.1,29.65,East,94,6.0,6.0,94,0.00,,---,0.00,VWS V14.01,2013-05-22 04:16:00,
2013-05-22 00:21:00,56.8,55.1,29.65,East,96,4.0,6.0,94,0.00,,---,0.00,VWS V14.01,2013-05-22 04:21:00,
2013-05-22 00:26:00,56.7,55.0,29.65,East,95,3.0,6.0,94,0.00,,---,0.00,VWS V14.01,2013-05-22 04:26:00,
2013-05-22 00:31:00,56.6,54.9,29.66,East,80,3.0,4.0,94,0.00,,---,0.00,VWS V14.01,2013-05-22 04:31:00,
2013-05-22 00:36:00,56.6,54.9,29.66,East,79,3.0,4.0,94,0.00,,---,0.00,VWS V14.01,2013-05-22 04:36:00,
2013-05-22 00:42:00,56.6,54.9,29.65,East,82,3.0,4.0,94,0.00,,---,0.00,VWS V14.01,2013-05-22 04:42:00,
2013-05-22 00:47:00,56.5,55.1,29.66,ENE,76,5.0,6.0,95,0.00,,---,0.00,VWS V14.01,2013-05-22 04:47:00,
2013-05-22 00:52:00,56.5,55.1,29.65,East,80,6.0,7.0,95,0.00,,---,0.00,VWS V14.01,2013-05-22 04:52:00,
2013-05-22 00:57:00,56.4,55.0,29.65,East,93,6.0,7.0,95,0.00,,---,0.00,VWS V14.01,2013-05-22 04:57:00,
2013-05-22 01:02:00,56.3,54.9,29.64,East,82,6.0,7.0,95,0.00,,---,0.00,VWS V14.01,2013-05-22 05:02:00,
2013-05-22 01:07:00,56.2,54.8,29.64,ENE,66,6.0,7.0,95,0.00,,---,0.00,VWS V14.01,2013-05-22 05:07:00,
2013-05-22 01:12:00,56.2,54.8,29.64,East,87,3.0,5.0,95,0.00,,---,0.00,VWS V14.01,2013-05-22 05:12:00,
2013-05-22 01:17:00,56.2,54.8,29.64,ESE,114,4.0,6.0,95,0.00,,---,0.00,VWS V14.01,2013-05-22 05:17:00,
2013-05-22 01:22:00,56.2,54.8,29.65,ESE,111,2.0,7.0,95,0.00,,---,0.00,VWS V14.01,2013-05-22 05:22:00,
2013-05-22 01:27:00,56.2,54.8,29.65,ESE,114,0.0,3.0,95,0.00,,---,0.00,VWS V14.01,2013-05-22 05:27:00,
2013-05-22 01:32:00,56.2,54.8,29.64,East,101,0.0,4.0,95,0.00,,---,0.00,VWS V14.01,2013-05-22 05:32:00,
2013-05-22 01:37:00,56.3,54.9,29.64,ESE,102,5.0,5.0,95,0.00,,---,0.00,VWS V14.01,2013-05-22 05:37:00,
2013-05-22 01:42:00,56.4,55.0,29.64,East,97,3.0,5.0,95,0.00,,---,0.00,VWS V14.01,2013-05-22 05:42:00,
2013-05-22 01:47:00,56.6,55.2,29.64,East,81,4.0,4.0,95,0.00,,---,0.00,VWS V14.01,2013-05-22 05:47:00,
2013-05-22 01:52:00,56.6,55.2,29.64,East,88,5.0,6.0,95,0.00,,---,0.00,VWS V14.01,2013-05-22 05:52:00,
2013-05-22 01:57:00,56.6,55.2,29.64,ESE,104,4.0,5.0,95,0.00,,---,0.00,VWS V14.01,2013-05-22 05:57:00,
2013-05-22 02:02:00,56.6,55.2,29.64,East,89,4.0,4.0,95,0.00,,---,0.00,VWS V14.01,2013-05-22 06:02:00,
2013-05-22 02:07:00,56.6,55.2,29.64,East,84,1.0,5.0,95,0.00,,---,0.00,VWS V14.01,2013-05-22 06:07:00,
2013-05-22 02:12:00,56.5,55.1,29.64,East,87,3.0,4.0,95,0.00,,---,0.00,VWS V14.01,2013-05-22 06:12:00,
2013-05-22 02:17:00,56.5,55.1,29.64,East,95,2.0,4.0,95,0.00,,---,0.00,VWS V14.01,2013-05-22 06:17:00,
2013-05-22 02:22:00,56.5,55.1,29.64,East,98,0.0,3.0,95,0.00,,---,0.00,VWS V14.01,2013-05-22 06:22:00,
2013-05-22 02:27:00,56.5,55.1,29.64,East,98,0.0,1.0,95,0.00,,---,0.00,VWS V14.01,2013-05-22 06:27:00,
2013-05-22 02:32:00,56.6,55.2,29.64,East,98,0.0,0.0,95,0.00,,---,0.00,VWS V14.01,2013-05-22 06:32:00,
2013-05-22 02:37:00,56.7,55.3,29.64,East,98,2.0,2.0,95,0.00,,---,0.00,VWS V14.01,2013-05-22 06:37:00,
2013-05-22 02:42:00,56.8,55.4,29.64,East,98,3.0,3.0,95,0.00,,---,0.00,VWS V14.01,2013-05-22 06:42:00,
2013-05-22 02:48:00,56.9,55.5,29.64,East,98,2.0,3.0,95,0.00,,---,0.00,VWS V14.01,2013-05-22 06:48:00,
2013-05-22 02:53:00,56.9,55.5,29.64,East,98,3.0,4.0,95,0.00,,---,0.00,VWS V14.01,2013-05-22 06:53:00,
2013-05-22 02:58:00,56.9,55.5,29.63,ESE,112,2.0,4.0,95,0.00,,---,0.00,VWS V14.01,2013-05-22 06:58:00,
2013-05-22 03:03:00,56.8,55.4,29.64,ESE,109,0.0,4.0,95,0.00,,---,0.00,VWS V14.01,2013-05-22 07:03:00,
2013-05-22 03:08:00,56.8,55.4,29.64,SE,140,0.0,0.0,95,0.00,,---,0.00,VWS V14.01,2013-05-22 07:08:00,
2013-05-22 03:13:00,56.8,55.4,29.64,SE,127,0.0,3.0,95,0.00,,---,0.00,VWS V14.01,2013-05-22 07:13:00,
2013-05-22 03:18:00,56.8,55.4,29.64,ESE,123,2.0,2.0,95,0.00,,---,0.00,VWS V14.01,2013-05-22 07:18:00,
2013-05-22 03:23:00,56.7,55.3,29.64,SSE,150,0.0,1.0,95,0.00,,---,0.00,VWS V14.01,2013-05-22 07:23:00,
2013-05-22 03:28:00,56.7,55.3,29.64,SE,124,1.0,2.0,95,0.00,,---,0.00,VWS V14.01,2013-05-22 07:28:00,
2013-05-22 03:33:00,56.6,55.2,29.64,SE,124,2.0,2.0,95,0.00,,---,0.00,VWS V14.01,2013-05-22 07:33:00,
2013-05-22 03:38:00,56.6,55.2,29.64,SE,124,0.0,0.0,95,0.00,,---,0.00,VWS V14.01,2013-05-22 07:38:00,
2013-05-22 03:43:00,56.6,55.2,29.64,SE,124,2.0,2.0,95,0.00,,---,0.00,VWS V14.01,2013-05-22 07:43:00,
2013-05-22 03:48:00,56.7,55.3,29.63,ESE,105,0.0,3.0,95,0.00,,---,0.00,VWS V14.01,2013-05-22 07:48:00,
2013-05-22 03:53:00,56.6,55.2,29.63,ESE,105,2.0,2.0,95,0.00,,---,0.00,VWS V14.01,2013-05-22 07:53:00,
2013-05-22 03:58:00,56.6,55.2,29.63,ESE,105,0.0,1.0,95,0.00,,---,0.00,VWS V14.01,2013-05-22 07:58:00,
2013-05-22 04:03:00,56.5,55.1,29.64,ESE,105,0.0,0.0,95,0.00,,---,0.00,VWS V14.01,2013-05-22 08:03:00,
2013-05-22 04:08:00,56.5,55.1,29.65,ESE,105,0.0,0.0,95,0.00,,---,0.00,VWS V14.01,2013-05-22 08:08:00,
2013-05-22 04:13:00,56.5,55.1,29.64,ESE,105,0.0,0.0,95,0.00,,---,0.00,VWS V14.01,2013-05-22 08:13:00,
2013-05-22 04:18:00,56.4,55.0,29.65,ESE,105,0.0,1.0,95,0.00,,---,0.00,VWS V14.01,2013-05-22 08:18:00,
2013-05-22 04:23:00,56.4,55.0,29.65,ESE,108,0.0,2.0,95,0.00,,---,0.00,VWS V14.01,2013-05-22 08:23:00,
2013-05-22 04:28:00,56.3,54.9,29.65,ESE,108,0.0,0.0,95,0.00,,---,0.00,VWS V14.01,2013-05-22 08:28:00,
2013-05-22 04:33:00,56.3,54.9,29.65,ESE,108,0.0,0.0,95,0.00,,---,0.00,VWS V14.01,2013-05-22 08:33:00,
2013-05-22 04:38:00,56.2,54.8,29.65,ESE,107,0.0,0.0,95,0.00,,---,0.00,VWS V14.01,2013-05-22 08:38:00,
2013-05-22 04:43:00,56.0,54.6,29.64,ESE,108,0.0,0.0,95,0.00,,---,0.00,VWS V14.01,2013-05-22 08:43:00,
2013-05-22 04:48:00,55.9,54.5,29.64,ESE,107,2.0,2.0,95,0.00,,---,0.00,VWS V14.01,2013-05-22 08:48:00,
2013-05-22 04:54:00,55.8,54.4,29.64,ESE,108,0.0,2.0,95,0.00,,---,0.00,VWS V14.01,2013-05-22 08:54:00,
2013-05-22 04:59:00,55.8,54.4,29.64,ESE,107,0.0,0.0,95,0.00,,---,0.00,VWS V14.01,2013-05-22 08:59:00,
2013-05-22 05:04:00,55.9,54.5,29.64,ESE,108,2.0,3.0,95,0.00,,---,0.00,VWS V14.01,2013-05-22 09:04:00,
2013-05-22 05:09:00,55.8,54.4,29.64,NE,45,0.0,4.0,95,0.00,,---,0.00,VWS V14.01,2013-05-22 09:09:00,
2013-05-22 05:14:00,55.7,54.3,29.64,NE,45,3.0,4.0,95,0.00,,---,0.00,VWS V14.01,2013-05-22 09:14:00,
2013-05-22 05:19:00,55.5,54.1,29.64,NE,37,3.0,5.0,95,0.00,,---,0.00,VWS V14.01,2013-05-22 09:19:00,
2013-05-22 05:24:00,55.3,53.9,29.65,NE,37,0.0,1.0,95,0.00,,---,0.00,VWS V14.01,2013-05-22 09:24:00,
2013-05-22 05:29:00,55.3,53.9,29.64,NE,37,0.0,0.0,95,0.00,,---,0.00,VWS V14.01,2013-05-22 09:29:00,
2013-05-22 05:34:00,55.4,54.0,29.64,NE,37,0.0,0.0,95,0.00,,---,0.00,VWS V14.01,2013-05-22 09:34:00,
2013-05-22 05:39:00,55.5,54.1,29.64,NE,37,2.0,4.0,95,0.00,,---,0.00,VWS V14.01,2013-05-22 09:39:00,
2013-05-22 05:44:00,55.1,53.7,29.64,NE,37,3.0,4.0,95,0.00,,---,0.00,VWS V14.01,2013-05-22 09:44:00,
2013-05-22 05:49:00,54.9,53.5,29.64,NE,37,0.0,3.0,95,0.00,,---,0.00,VWS V14.01,2013-05-22 09:49:00,
2013-05-22 05:54:00,54.9,53.5,29.64,NE,37,0.0,1.0,95,0.00,,---,0.00,VWS V14.01,2013-05-22 09:54:00,
2013-05-22 05:59:00,54.8,53.4,29.64,NE,37,0.0,0.0,95,0.00,,---,0.00,VWS V14.01,2013-05-22 09:59:00,
2013-05-22 06:04:00,54.8,53.4,29.65,NE,37,0.0,0.0,95,0.00,,---,0.00,VWS V14.01,2013-05-22 10:04:00,
2013-05-22 06:09:00,54.7,53.3,29.64,NE,37,0.0,0.0,95,0.00,,---,0.00,VWS V14.01,2013-05-22 10:09:00,
2013-05-22 06:14:00,54.5,53.1,29.64,NE,37,0.0,0.0,95,0.00,,---,0.00,VWS V14.01,2013-05-22 10:14:00,
2013-05-22 06:19:00,54.4,53.0,29.64,NE,37,0.0,0.0,95,0.00,,---,0.00,VWS V14.01,2013-05-22 10:19:00,
2013-05-22 06:24:00,54.3,52.9,29.64,NE,37,0.0,0.0,95,0.00,,---,0.00,VWS V14.01,2013-05-22 10:24:00,
2013-05-22 06:29:00,54.4,53.0,29.64,NE,37,0.0,0.0,95,0.00,,---,0.00,VWS V14.01,2013-05-22 10:29:00,
2013-05-22 06:34:00,54.3,52.9,29.64,NE,37,0.0,0.0,95,0.00,,---,0.00,VWS V14.01,2013-05-22 10:34:00,
2013-05-22 06:39:00,54.4,53.0,29.65,NE,37,0.0,0.0,95,0.00,,---,0.00,VWS V14.01,2013-05-22 10:39:00,
2013-05-22 06:44:00,54.5,53.1,29.65,NE,37,0.0,0.0,95,0.00,,---,0.00,VWS V14.01,2013-05-22 10:44:00,
2013-05-22 06:49:00,54.7,53.3,29.65,NE,37,2.0,2.0,95,0.00,,---,0.00,VWS V14.01,2013-05-22 10:49:00,
2013-05-22 06:54:00,54.8,53.4,29.66,NE,37,0.0,3.0,95,0.00,,---,0.00,VWS V14.01,2013-05-22 10:54:00,
2013-05-22 06:59:00,54.8,53.4,29.66,WNW,292,1.0,4.0,95,0.00,,---,0.00,VWS V14.01,2013-05-22 10:59:00,
2013-05-22 07:04:00,54.7,53.3,29.66,NNW,327,0.0,2.0,95,0.00,,---,0.00,VWS V14.01,2013-05-22 11:04:00,
2013-05-22 07:09:00,54.5,53.1,29.66,NW,325,0.0,3.0,95,0.00,,---,0.00,VWS V14.01,2013-05-22 11:09:00,
2013-05-22 07:14:00,54.3,52.9,29.67,NNW,327,0.0,2.0,95,0.00,,---,0.00,VWS V14.01,2013-05-22 11:14:00,
2013-05-22 07:20:00,54.2,52.8,29.67,NNW,335,0.0,1.0,95,0.00,,---,0.00,VWS V14.01,2013-05-22 11:20:00,
2013-05-22 07:25:00,54.1,52.7,29.67,NW,319,0.0,2.0,95,0.00,,---,0.00,VWS V14.01,2013-05-22 11:25:00,
2013-05-22 07:30:00,53.9,52.8,29.67,NW,325,0.0,2.0,96,0.00,,---,0.00,VWS V14.01,2013-05-22 11:30:00,
2013-05-22 07:35:00,53.6,52.2,29.67,North,349,2.0,4.0,95,0.00,,---,0.00,VWS V14.01,2013-05-22 11:35:00,
2013-05-22 07:40:00,53.0,51.6,29.67,North,349,1.0,1.0,95,0.00,,---,0.00,VWS V14.01,2013-05-22 11:40:00,
2013-05-22 07:45:00,52.9,51.5,29.67,North,349,0.0,0.0,95,0.00,,---,0.00,VWS V14.01,2013-05-22 11:45:00,
2013-05-22 07:50:00,52.8,51.4,29.67,North,350,2.0,3.0,95,0.00,,---,0.00,VWS V14.01,2013-05-22 11:50:00,
2013-05-22 07:55:00,52.9,51.5,29.67,North,350,0.0,3.0,95,0.00,,---,0.00,VWS V14.01,2013-05-22 11:55:00,
2013-05-22 08:00:00,52.9,51.5,29.67,North,350,0.0,0.0,95,0.00,,---,0.00,VWS V14.01,2013-05-22 12:00:00,
2013-05-22 08:05:00,52.9,51.8,29.66,North,350,0.0,0.0,96,0.00,,---,0.00,VWS V14.01,2013-05-22 12:05:00,
2013-05-22 08:10:00,52.9,51.8,29.66,North,350,0.0,0.0,96,0.00,,---,0.00,VWS V14.01,2013-05-22 12:10:00,
2013-05-22 08:15:00,53.2,51.8,29.67,ENE,63,2.0,3.0,95,0.00,,---,0.00,VWS V14.01,2013-05-22 12:15:00,
2013-05-22 08:20:00,53.6,52.5,29.66,ENE,63,0.0,3.0,96,0.00,,---,0.00,VWS V14.01,2013-05-22 12:20:00,
2013-05-22 08:25:00,54.1,53.0,29.66,ENE,63,0.0,0.0,96,0.00,,---,0.00,VWS V14.01,2013-05-22 12:25:00,
2013-05-22 08:30:00,54.5,53.4,29.66,ENE,63,0.0,2.0,96,0.00,,---,0.00,VWS V14.01,2013-05-22 12:30:00,
2013-05-22 08:35:00,54.8,53.7,29.66,ENE,63,0.0,3.0,96,0.00,,---,0.00,VWS V14.01,2013-05-22 12:35:00,
2013-05-22 08:40:00,55.1,54.0,29.66,ENE,63,2.0,2.0,96,0.00,,---,0.00,VWS V14.01,2013-05-22 12:40:00,
2013-05-22 08:45:00,55.3,54.2,29.66,ENE,63,1.0,2.0,96,0.00,,---,0.00,VWS V14.01,2013-05-22 12:45:00,
2013-05-22 08:50:00,55.6,54.5,29.66,ENE,64,2.0,4.0,96,0.00,,---,0.00,VWS V14.01,2013-05-22 12:50:00,
2013-05-22 08:55:00,55.7,54.6,29.66,NE,51,3.0,4.0,96,0.00,,---,0.00,VWS V14.01,2013-05-22 12:55:00,
2013-05-22 09:00:00,55.7,54.6,29.66,ENE,58,4.0,4.0,96,0.00,,---,0.00,VWS V14.01,2013-05-22 13:00:00,
2013-05-22 09:05:00,55.7,54.6,29.65,ENE,76,4.0,5.0,96,0.00,,---,0.00,VWS V14.01,2013-05-22 13:05:00,
2013-05-22 09:10:00,55.7,54.6,29.66,ENE,72,1.0,4.0,96,0.00,,---,0.00,VWS V14.01,2013-05-22 13:10:00,
2013-05-22 09:15:00,55.7,54.6,29.66,ENE,72,1.0,2.0,96,0.00,,---,0.00,VWS V14.01,2013-05-22 13:15:00,
2013-05-22 09:20:00,55.7,54.6,29.66,ENE,72,0.0,2.0,96,0.00,,---,0.00,VWS V14.01,2013-05-22 13:20:00,
2013-05-22 09:25:00,55.8,54.7,29.66,ENE,72,0.0,1.0,96,0.00,,---,0.00,VWS V14.01,2013-05-22 13:25:00,
2013-05-22 09:30:00,56.0,54.9,29.66,ENE,72,0.0,0.0,96,0.00,,---,0.00,VWS V14.01,2013-05-22 13:30:00,
2013-05-22 09:35:00,56.2,55.1,29.66,ENE,72,0.0,0.0,96,0.00,,---,0.00,VWS V14.01,2013-05-22 13:35:00,
2013-05-22 09:40:00,56.4,55.3,29.66,East,90,0.0,0.0,96,0.00,,---,0.00,VWS V14.01,2013-05-22 13:40:00,
2013-05-22 09:45:00,56.6,55.5,29.66,East,88,0.0,0.0,96,0.00,,---,0.00,VWS V14.01,2013-05-22 13:45:00,
2013-05-22 09:50:00,56.6,55.5,29.66,East,88,0.0,0.0,96,0.00,,---,0.00,VWS V14.01,2013-05-22 13:50:00,
2013-05-22 09:55:00,56.9,55.8,29.66,East,88,0.0,0.0,96,0.00,,---,0.00,VWS V14.01,2013-05-22 13:55:00,
2013-05-22 10:00:00,56.9,55.8,29.66,East,88,0.0,0.0,96,0.00,,---,0.00,VWS V14.01,2013-05-22 14:00:00,
2013-05-22 10:05:00,57.1,56.0,29.65,ENE,72,3.0,3.0,96,0.00,,---,0.00,VWS V14.01,2013-05-22 14:05:00,
2013-05-22 10:10:00,57.3,56.2,29.65,North,5,4.0,5.0,96,0.00,,---,0.00,VWS V14.01,2013-05-22 14:10:00,
2013-05-22 10:15:00,57.3,56.2,29.65,ENE,59,5.0,6.0,96,0.00,,---,0.00,VWS V14.01,2013-05-22 14:15:00,
2013-05-22 10:20:00,57.3,56.2,29.65,NNE,32,2.0,4.0,96,0.00,,---,0.00,VWS V14.01,2013-05-22 14:20:00,
2013-05-22 10:25:00,57.5,56.4,29.65,ENE,60,4.0,5.0,96,0.00,,---,0.00,VWS V14.01,2013-05-22 14:25:00,
2013-05-22 10:30:00,57.3,56.2,29.65,NE,34,3.0,3.0,96,0.00,,---,0.00,VWS V14.01,2013-05-22 14:30:00,
2013-05-22 10:36:00,57.3,56.2,29.65,NNE,26,2.0,4.0,96,0.00,,---,0.00,VWS V14.01,2013-05-22 14:36:00,
2013-05-22 10:41:00,57.1,56.0,29.65,NNE,19,4.0,5.0,96,0.00,,---,0.00,VWS V14.01,2013-05-22 14:41:00,
2013-05-22 10:46:00,57.0,55.9,29.66,NNE,19,4.0,5.0,96,0.00,,---,0.00,VWS V14.01,2013-05-22 14:46:00,
2013-05-22 10:51:00,57.3,56.2,29.66,NNE,19,5.0,5.0,96,0.00,,---,0.00,VWS V14.01,2013-05-22 14:51:00,
2013-05-22 10:56:00,57.4,56.3,29.65,NNE,19,3.0,4.0,96,0.00,,---,0.00,VWS V14.01,2013-05-22 14:56:00,
2013-05-22 11:01:00,57.7,56.6,29.66,NNE,19,2.0,4.0,96,0.00,,---,0.00,VWS V14.01,2013-05-22 15:01:00,
2013-05-22 11:06:00,57.9,56.8,29.65,NNE,20,4.0,4.0,96,0.00,,---,0.00,VWS V14.01,2013-05-22 15:06:00,
2013-05-22 11:11:00,58.2,57.1,29.66,NNE,19,3.0,4.0,96,0.00,,---,0.00,VWS V14.01,2013-05-22 15:11:00,
2013-05-22 11:16:00,58.4,57.3,29.65,NNE,25,2.0,4.0,96,0.00,,---,0.00,VWS V14.01,2013-05-22 15:16:00,
2013-05-22 11:21:00,58.7,57.6,29.65,NNE,17,5.0,5.0,96,0.00,,---,0.00,VWS V14.01,2013-05-22 15:21:00,
2013-05-22 11:26:00,58.6,57.5,29.65,NNE,24,4.0,7.0,96,0.00,,---,0.00,VWS V14.01,2013-05-22 15:26:00,
2013-05-22 11:31:00,58.5,57.4,29.65,NE,40,3.0,4.0,96,0.00,,---,0.00,VWS V14.01,2013-05-22 15:31:00,
2013-05-22 11:36:00,58.9,57.8,29.65,North,5,6.0,9.0,96,0.00,,---,0.00,VWS V14.01,2013-05-22 15:36:00,
2013-05-22 11:41:00,59.0,57.9,29.65,NNE,20,5.0,7.0,96,0.00,,---,0.00,VWS V14.01,2013-05-22 15:41:00,
2013-05-22 11:46:00,59.0,57.9,29.65,NE,42,5.0,6.0,96,0.00,,---,0.00,VWS V14.01,2013-05-22 15:46:00,
2013-05-22 11:51:00,59.0,57.9,29.65,NNE,25,3.0,5.0,96,0.00,,---,0.00,VWS V14.01,2013-05-22 15:51:00,
2013-05-22 11:56:00,59.0,57.9,29.64,NE,49,3.0,6.0,96,0.00,,---,0.00,VWS V14.01,2013-05-22 15:56:00,
2013-05-22 12:01:00,59.0,57.9,29.65,NE,47,4.0,5.0,96,0.00,,---,0.00,VWS V14.01,2013-05-22 16:01:00,
2013-05-22 12:06:00,59.3,58.2,29.64,NE,46,3.0,4.0,96,0.00,,---,0.00,VWS V14.01,2013-05-22 16:06:00,
2013-05-22 12:11:00,59.2,58.1,29.64,NE,39,3.0,5.0,96,0.00,,---,0.00,VWS V14.01,2013-05-22 16:11:00,
2013-05-22 12:16:00,59.3,58.2,29.65,ENE,58,4.0,5.0,96,0.00,,---,0.00,VWS V14.01,2013-05-22 16:16:00,
2013-05-22 12:21:00,59.2,58.1,29.65,ENE,61,3.0,5.0,96,0.00,,---,0.00,VWS V14.01,2013-05-22 16:21:00,
2013-05-22 12:26:00,59.4,58.3,29.65,ENE,77,3.0,4.0,96,0.00,,---,0.00,VWS V14.01,2013-05-22 16:26:00,
2013-05-22 12:31:00,59.4,58.3,29.65,ENE,61,6.0,6.0,96,0.00,,---,0.00,VWS V14.01,2013-05-22 16:31:00,
2013-05-22 12:36:00,59.5,58.4,29.65,ENE,65,4.0,6.0,96,0.00,,---,0.00,VWS V14.01,2013-05-22 16:36:00,
2013-05-22 12:41:00,59.6,58.5,29.65,ENE,61,5.0,6.0,96,0.00,,---,0.00,VWS V14.01,2013-05-22 16:41:00,
2013-05-22 12:46:00,60.0,58.9,29.65,NNE,26,5.0,7.0,96,0.00,,---,0.00,VWS V14.01,2013-05-22 16:46:00,
2013-05-22 12:51:00,59.8,58.7,29.65,ENE,61,5.0,6.0,96,0.00,,---,0.00,VWS V14.01,2013-05-22 16:51:00,
2013-05-22 12:56:00,59.8,58.7,29.64,ENE,61,7.0,7.0,96,0.00,,---,0.00,VWS V14.01,2013-05-22 16:56:00,
2013-05-22 13:01:00,59.9,58.8,29.64,NNE,24,5.0,7.0,96,0.00,,---,0.00,VWS V14.01,2013-05-22 17:01:00,
2013-05-22 13:06:00,59.9,58.8,29.64,NNE,14,6.0,6.0,96,0.00,,---,0.00,VWS V14.01,2013-05-22 17:06:00,
2013-05-22 13:12:00,60.0,58.9,29.64,NNE,22,5.0,7.0,96,0.00,,---,0.00,VWS V14.01,2013-05-22 17:12:00,
2013-05-22 13:17:00,60.1,59.0,29.64,NE,38,3.0,6.0,96,0.00,,---,0.00,VWS V14.01,2013-05-22 17:17:00,
2013-05-22 13:22:00,60.2,59.1,29.64,NE,46,3.0,6.0,96,0.00,,---,0.00,VWS V14.01,2013-05-22 17:22:00,
2013-05-22 13:27:00,60.3,59.2,29.64,NE,55,5.0,6.0,96,0.00,,---,0.00,VWS V14.01,2013-05-22 17:27:00,
2013-05-22 13:32:00,60.2,59.1,29.64,NE,40,3.0,5.0,96,0.00,,---,0.00,VWS V14.01,2013-05-22 17:32:00,
2013-05-22 13:37:00,60.4,59.3,29.64,ENE,60,4.0,5.0,96,0.00,,---,0.00,VWS V14.01,2013-05-22 17:37:00,
2013-05-22 13:42:00,60.4,59.3,29.64,NE,55,4.0,5.0,96,0.00,,---,0.00,VWS V14.01,2013-05-22 17:42:00,
2013-05-22 13:47:00,60.2,59.1,29.64,ENE,68,5.0,6.0,96,0.00,,---,0.00,VWS V14.01,2013-05-22 17:47:00,
2013-05-22 13:52:00,60.2,59.1,29.64,ENE,61,9.0,9.0,96,0.00,,---,0.00,VWS V14.01,2013-05-22 17:52:00,
2013-05-22 13:57:00,60.4,59.3,29.64,ENE,63,5.0,7.0,96,0.00,,---,0.00,VWS V14.01,2013-05-22 17:57:00,
2013-05-22 14:02:00,60.4,59.3,29.64,NE,55,6.0,7.0,96,0.00,,---,0.00,VWS V14.01,2013-05-22 18:02:00,
2013-05-22 14:07:00,60.4,59.3,29.64,ENE,61,6.0,7.0,96,0.00,,---,0.00,VWS V14.01,2013-05-22 18:07:00,
2013-05-22 14:12:00,60.6,59.5,29.64,ENE,62,6.0,9.0,96,0.00,,---,0.00,VWS V14.01,2013-05-22 18:12:00,
2013-05-22 14:17:00,60.4,59.3,29.63,ENE,66,5.0,9.0,96,0.00,,---,0.00,VWS V14.01,2013-05-22 18:17:00,
2013-05-22 14:22:00,60.4,59.3,29.64,ENE,71,6.0,9.0,96,0.00,,---,0.00,VWS V14.01,2013-05-22 18:22:00,
2013-05-22 14:27:00,60.4,59.3,29.64,NE,55,5.0,9.0,96,0.00,,---,0.00,VWS V14.01,2013-05-22 18:27:00,
2013-05-22 14:32:00,60.4,59.0,29.64,NNE,29,7.0,10.0,95,0.00,,---,0.00,VWS V14.01,2013-05-22 18:32:00,
2013-05-22 14:37:00,60.4,59.0,29.63,NE,53,10.0,10.0,95,0.00,,---,0.00,VWS V14.01,2013-05-22 18:37:00,
2013-05-22 14:42:00,60.4,59.0,29.64,NE,41,6.0,10.0,95,0.00,,---,0.00,VWS V14.01,2013-05-22 18:42:00,
2013-05-22 14:47:00,60.3,58.9,29.64,NE,40,7.0,11.0,95,0.00,,---,0.00,VWS V14.01,2013-05-22 18:47:00,
2013-05-22 14:52:00,60.2,58.8,29.64,ENE,57,6.0,9.0,95,0.00,,---,0.00,VWS V14.01,2013-05-22 18:52:00,
2013-05-22 14:57:00,60.0,58.6,29.64,NE,37,8.0,9.0,95,0.00,,---,0.00,VWS V14.01,2013-05-22 18:57:00,
2013-05-22 15:02:00,59.6,57.9,29.64,NE,53,7.0,11.0,94,0.00,,---,0.00,VWS V14.01,2013-05-22 19:02:00,
2013-05-22 15:07:00,59.4,57.7,29.64,ENE,64,9.0,11.0,94,0.00,,---,0.00,VWS V14.01,2013-05-22 19:07:00,
2013-05-22 15:12:00,59.1,57.4,29.64,NE,53,12.0,12.0,94,0.00,,---,0.00,VWS V14.01,2013-05-22 19:12:00,
2013-05-22 15:17:00,59.0,57.3,29.64,NE,41,9.0,13.0,94,0.00,,---,0.00,VWS V14.01,2013-05-22 19:17:00,
2013-05-22 15:22:00,58.6,56.9,29.64,NE,48,11.0,14.0,94,0.00,,---,0.00,VWS V14.01,2013-05-22 19:22:00,
2013-05-22 15:27:00,58.4,56.7,29.64,ENE,59,7.0,12.0,94,0.00,,---,0.00,VWS V14.01,2013-05-22 19:27:00,
2013-05-22 15:32:00,58.1,56.4,29.64,ENE,63,7.0,11.0,94,0.00,,---,0.00,VWS V14.01,2013-05-22 19:32:00,
2013-05-22 15:37:00,57.9,56.2,29.64,NE,45,9.0,13.0,94,0.00,,---,0.00,VWS V14.01,2013-05-22 19:37:00,
2013-05-22 15:42:00,57.8,56.1,29.64,ENE,59,9.0,11.0,94,0.00,,---,0.00,VWS V14.01,2013-05-22 19:42:00,
2013-05-22 15:47:00,57.8,56.1,29.64,ENE,59,11.0,12.0,94,0.00,,---,0.00,VWS V14.01,2013-05-22 19:47:00,
2013-05-22 15:52:00,57.7,56.0,29.64,NE,41,8.0,11.0,94,0.00,,---,0.00,VWS V14.01,2013-05-22 19:52:00,
2013-05-22 15:57:00,57.4,55.7,29.64,NE,36,5.0,12.0,94,0.00,,---,0.00,VWS V14.01,2013-05-22 19:57:00,
2013-05-22 16:02:00,57.5,55.8,29.64,NE,44,6.0,10.0,94,0.00,,---,0.00,VWS V14.01,2013-05-22 20:02:00,
2013-05-22 16:07:00,57.3,55.6,29.64,NE,48,6.0,11.0,94,0.00,,---,0.00,VWS V14.01,2013-05-22 20:07:00,
2013-05-22 16:12:00,57.1,55.4,29.64,ENE,61,5.0,10.0,94,0.00,,---,0.00,VWS V14.01,2013-05-22 20:12:00,
2013-05-22 16:17:00,57.0,55.3,29.64,NE,50,4.0,10.0,94,0.00,,---,0.00,VWS V14.01,2013-05-22 20:17:00,
2013-05-22 16:22:00,56.9,55.2,29.64,NE,48,8.0,12.0,94,0.01,,---,0.01,VWS V14.01,2013-05-22 20:22:00,
2013-05-22 16:27:00,56.8,55.1,29.64,NNE,26,6.0,10.0,94,0.01,,---,0.01,VWS V14.01,2013-05-22 20:27:00,
2013-05-22 16:32:00,56.7,55.0,29.65,ENE,75,9.0,11.0,94,0.01,,---,0.01,VWS V14.01,2013-05-22 20:32:00,
2013-05-22 16:37:00,56.5,54.8,29.64,ENE,63,9.0,12.0,94,0.01,,---,0.01,VWS V14.01,2013-05-22 20:37:00,
2013-05-22 16:42:00,56.4,55.0,29.64,ENE,60,9.0,12.0,95,0.02,,---,0.02,VWS V14.01,2013-05-22 20:42:00,
2013-05-22 16:47:00,56.5,55.1,29.64,ENE,64,5.0,10.0,95,0.02,,---,0.02,VWS V14.01,2013-05-22 20:47:00,
2013-05-22 16:52:00,56.4,55.0,29.64,ENE,68,10.0,11.0,95,0.02,,---,0.02,VWS V14.01,2013-05-22 20:52:00,
2013-05-22 16:58:00,56.4,55.0,29.64,NE,42,8.0,11.0,95,0.02,,---,0.02,VWS V14.01,2013-05-22 20:58:00,
2013-05-22 17:03:00,56.3,54.9,29.63,ENE,57,9.0,11.0,95,0.02,,---,0.02,VWS V14.01,2013-05-22 21:03:00,
2013-05-22 17:08:00,56.4,55.0,29.63,ENE,64,9.0,13.0,95,0.02,,---,0.02,VWS V14.01,2013-05-22 21:08:00,
2013-05-22 17:13:00,56.4,55.0,29.63,ENE,67,10.0,13.0,95,0.03,,---,0.03,VWS V14.01,2013-05-22 21:13:00,
2013-05-22 17:18:00,56.4,55.0,29.64,ENE,62,9.0,12.0,95,0.03,,---,0.03,VWS V14.01,2013-05-22 21:18:00,
2013-05-22 17:23:00,56.4,55.0,29.64,NE,46,7.0,11.0,95,0.03,,---,0.03,VWS V14.01,2013-05-22 21:23:00,
2013-05-22 17:28:00,56.2,54.8,29.63,NE,36,4.0,12.0,95,0.02,,---,0.03,VWS V14.01,2013-05-22 21:28:00,
2013-05-22 17:33:00,56.3,54.9,29.63,ENE,61,6.0,10.0,95,0.02,,---,0.03,VWS V14.01,2013-05-22 21:33:00,
2013-05-22 17:38:00,56.3,54.9,29.63,NE,53,9.0,13.0,95,0.02,,---,0.03,VWS V14.01,2013-05-22 21:38:00,
2013-05-22 17:43:00,56.2,54.8,29.63,ENE,67,9.0,11.0,95,0.02,,---,0.03,VWS V14.01,2013-05-22 21:43:00,
2013-05-22 17:48:00,56.2,54.8,29.64,ENE,59,5.0,12.0,95,0.01,,---,0.03,VWS V14.01,2013-05-22 21:48:00,
2013-05-22 17:53:00,56.1,54.7,29.63,NE,40,9.0,12.0,95,0.01,,---,0.03,VWS V14.01,2013-05-22 21:53:00,
2013-05-22 17:58:00,56.1,54.7,29.64,ENE,71,13.0,13.0,95,0.01,,---,0.03,VWS V14.01,2013-05-22 21:58:00,
2013-05-22 18:03:00,55.9,54.2,29.64,ENE,59,10.0,13.0,94,0.01,,---,0.03,VWS V14.01,2013-05-22 22:03:00,
2013-05-22 18:08:00,55.9,54.2,29.64,NE,41,6.0,15.0,94,0.01,,---,0.03,VWS V14.01,2013-05-22 22:08:00,
2013-05-22 18:13:00,55.9,54.5,29.65,NNE,27,5.0,9.0,95,0.01,,---,0.03,VWS V14.01,2013-05-22 22:13:00,
2013-05-22 18:18:00,55.8,54.4,29.65,NE,44,5.0,9.0,95,0.01,,---,0.04,VWS V14.01,2013-05-22 22:18:00,
2013-05-22 18:23:00,55.8,54.4,29.66,NNE,28,8.0,8.0,95,0.01,,---,0.04,VWS V14.01,2013-05-22 22:23:00,
2013-05-22 18:28:00,55.6,53.9,29.66,NNE,29,6.0,11.0,94,0.01,,---,0.04,VWS V14.01,2013-05-22 22:28:00,
2013-05-22 18:33:00,55.4,53.7,29.66,NE,53,6.0,11.0,94,0.01,,---,0.04,VWS V14.01,2013-05-22 22:33:00,
2013-05-22 18:38:00,55.3,53.6,29.66,ENE,61,4.0,9.0,94,0.02,,---,0.05,VWS V14.01,2013-05-22 22:38:00,
2013-05-22 18:43:00,55.3,53.6,29.66,NNE,32,6.0,10.0,94,0.03,,---,0.06,VWS V14.01,2013-05-22 22:43:00,
2013-05-22 18:48:00,55.2,53.8,29.65,NE,42,5.0,10.0,95,0.03,,---,0.06,VWS V14.01,2013-05-22 22:48:00,
2013-05-22 18:53:00,55.1,53.7,29.66,NE,51,5.0,11.0,95,0.04,,---,0.07,VWS V14.01,2013-05-22 22:53:00,
2013-05-22 18:58:00,55.0,53.6,29.66,NE,46,7.0,12.0,95,0.04,,---,0.07,VWS V14.01,2013-05-22 22:58:00,
2013-05-22 19:03:00,55.0,53.6,29.66,ENE,64,7.0,14.0,95,0.05,,---,0.08,VWS V14.01,2013-05-22 23:03:00,
2013-05-22 19:08:00,55.0,53.6,29.66,ENE,63,10.0,12.0,95,0.05,,---,0.08,VWS V14.01,2013-05-22 23:08:00,
2013-05-22 19:13:00,55.0,53.6,29.66,ENE,63,6.0,11.0,95,0.05,,---,0.08,VWS V14.01,2013-05-22 23:13:00,
2013-05-22 19:18:00,54.9,53.5,29.66,East,82,7.0,11.0,95,0.06,,---,0.09,VWS V14.01,2013-05-22 23:18:00,
2013-05-22 19:23:00,54.9,53.2,29.66,East,92,9.0,12.0,94,0.05,,---,0.09,VWS V14.01,2013-05-22 23:23:00,
2013-05-22 19:28:00,54.8,53.1,29.67,ENE,66,7.0,11.0,94,0.05,,---,0.09,VWS V14.01,2013-05-22 23:28:00,
2013-05-22 19:33:00,54.8,53.1,29.67,ENE,72,8.0,17.0,94,0.06,,---,0.10,VWS V14.01,2013-05-22 23:33:00,
2013-05-22 19:38:00,54.8,53.1,29.67,ENE,61,10.0,14.0,94,0.06,,---,0.10,VWS V14.01,2013-05-22 23:38:00,
2013-05-22 19:43:00,54.8,53.1,29.67,ENE,63,11.0,14.0,94,0.05,,---,0.10,VWS V14.01,2013-05-22 23:43:00,
2013-05-22 19:48:00,54.8,53.1,29.67,ENE,66,10.0,11.0,94,0.04,,---,0.10,VWS V14.01,2013-05-22 23:48:00,
2013-05-22 19:53:00,54.8,53.1,29.67,ENE,59,10.0,12.0,94,0.03,,---,0.10,VWS V14.01,2013-05-22 23:53:00,
2013-05-22 19:58:00,54.8,53.1,29.67,ENE,60,7.0,12.0,94,0.03,,---,0.10,VWS V14.01,2013-05-22 23:58:00,
2013-05-22 20:03:00,54.8,53.1,29.67,ENE,78,9.0,12.0,94,0.03,,---,0.10,VWS V14.01,2013-05-23 00:03:00,
2013-05-22 20:08:00,54.8,53.1,29.67,ENE,72,10.0,11.0,94,0.02,,---,0.10,VWS V14.01,2013-05-23 00:08:00,
2013-05-22 20:13:00,54.8,53.1,29.67,ENE,67,7.0,10.0,94,0.02,,---,0.10,VWS V14.01,2013-05-23 00:13:00,
2013-05-22 20:18:00,54.8,53.1,29.67,ENE,76,8.0,13.0,94,0.02,,---,0.10,VWS V14.01,2013-05-23 00:18:00,
2013-05-22 20:23:00,54.7,53.0,29.67,ENE,63,7.0,11.0,94,0.01,,---,0.10,VWS V14.01,2013-05-23 00:23:00,
2013-05-22 20:28:00,54.7,53.0,29.67,ENE,62,7.0,10.0,94,0.01,,---,0.10,VWS V14.01,2013-05-23 00:28:00,
2013-05-22 20:33:00,54.7,53.0,29.67,NE,50,9.0,10.0,94,0.02,,---,0.11,VWS V14.01,2013-05-23 00:33:00,
2013-05-22 20:38:00,54.5,52.8,29.68,NNE,30,7.0,11.0,94,0.01,,---,0.11,VWS V14.01,2013-05-23 00:38:00,
2013-05-22 20:43:00,54.4,52.7,29.68,NE,46,7.0,15.0,94,0.02,,---,0.12,VWS V14.01,2013-05-23 00:43:00,
2013-05-22 20:48:00,54.2,52.5,29.68,NNE,25,7.0,13.0,94,0.02,,---,0.12,VWS V14.01,2013-05-23 00:48:00,
2013-05-22 20:53:00,54.2,52.5,29.68,North,5,10.0,15.0,94,0.02,,---,0.12,VWS V14.01,2013-05-23 00:53:00,
2013-05-22 20:59:00,54.2,52.5,29.68,NNE,17,7.0,10.0,94,0.02,,---,0.12,VWS V14.01,2013-05-23 00:59:00,
2013-05-22 21:04:00,53.9,52.2,29.68,NNE,18,12.0,14.0,94,0.02,,---,0.12,VWS V14.01,2013-05-23 01:04:00,
2013-05-22 21:09:00,53.7,52.0,29.68,NNE,22,11.0,14.0,94,0.02,,---,0.12,VWS V14.01,2013-05-23 01:09:00,
2013-05-22 21:14:00,53.5,51.8,29.68,NNE,22,10.0,14.0,94,0.02,,---,0.12,VWS V14.01,2013-05-23 01:14:00,
2013-05-22 21:19:00,53.3,51.6,29.68,NNE,17,13.0,15.0,94,0.03,,---,0.13,VWS V14.01,2013-05-23 01:19:00,
2013-05-22 21:24:00,53.1,51.4,29.68,NE,38,9.0,15.0,94,0.03,,---,0.13,VWS V14.01,2013-05-23 01:24:00,
2013-05-22 21:29:00,53.1,51.4,29.68,NE,34,12.0,20.0,94,0.03,,---,0.13,VWS V14.01,2013-05-23 01:29:00,
2013-05-22 21:34:00,53.0,51.3,29.68,NNE,32,11.0,14.0,94,0.03,,---,0.14,VWS V14.01,2013-05-23 01:34:00,
2013-05-22 21:39:00,52.9,51.2,29.68,NE,51,8.0,18.0,94,0.03,,---,0.14,VWS V14.01,2013-05-23 01:39:00,
2013-05-22 21:44:00,52.9,51.2,29.69,NE,50,9.0,16.0,94,0.03,,---,0.14,VWS V14.01,2013-05-23 01:44:00,
2013-05-22 21:49:00,52.8,51.1,29.68,ENE,59,9.0,15.0,94,0.02,,---,0.14,VWS V14.01,2013-05-23 01:49:00,
2013-05-22 21:54:00,52.8,51.1,29.69,ENE,63,13.0,15.0,94,0.02,,---,0.14,VWS V14.01,2013-05-23 01:54:00,
2013-05-22 21:59:00,52.7,51.0,29.69,NE,44,7.0,14.0,94,0.02,,---,0.14,VWS V14.01,2013-05-23 01:59:00,
2013-05-22 22:04:00,52.7,51.0,29.69,NE,38,12.0,14.0,94,0.02,,---,0.14,VWS V14.01,2013-05-23 02:04:00,
2013-05-22 22:09:00,52.6,50.9,29.69,NNE,25,10.0,13.0,94,0.03,,---,0.15,VWS V14.01,2013-05-23 02:09:00,
2013-05-22 22:14:00,52.6,50.9,29.70,ENE,59,9.0,16.0,94,0.03,,---,0.15,VWS V14.01,2013-05-23 02:14:00,
2013-05-22 22:19:00,52.6,50.9,29.70,NNE,33,6.0,13.0,94,0.03,,---,0.16,VWS V14.01,2013-05-23 02:19:00,
2013-05-22 22:24:00,52.6,50.9,29.70,NNE,30,9.0,17.0,94,0.03,,---,0.16,VWS V14.01,2013-05-23 02:24:00,
2013-05-22 22:29:00,52.6,50.9,29.70,NE,48,11.0,14.0,94,0.03,,---,0.16,VWS V14.01,2013-05-23 02:29:00,
2013-05-22 22:34:00,52.5,50.8,29.70,ENE,62,18.0,18.0,94,0.03,,---,0.16,VWS V14.01,2013-05-23 02:34:00,
2013-05-22 22:39:00,52.5,50.8,29.71,NE,44,8.0,18.0,94,0.02,,---,0.16,VWS V14.01,2013-05-23 02:39:00,
2013-05-22 22:44:00,52.5,50.8,29.71,NNE,19,8.0,14.0,94,0.02,,---,0.16,VWS V14.01,2013-05-23 02:44:00,
2013-05-22 22:49:00,52.5,50.8,29.71,NNE,14,10.0,15.0,94,0.02,,---,0.16,VWS V14.01,2013-05-23 02:49:00,
2013-05-22 22:54:00,52.5,50.8,29.71,NNE,17,12.0,17.0,94,0.03,,---,0.17,VWS V14.01,2013-05-23 02:54:00,
2013-05-22 22:59:00,52.5,50.8,29.71,NNE,24,10.0,12.0,94,0.03,,---,0.17,VWS V14.01,2013-05-23 02:59:00,
2013-05-22 23:04:00,52.4,50.7,29.71,NNE,19,10.0,11.0,94,0.03,,---,0.17,VWS V14.01,2013-05-23 03:04:00,
2013-05-22 23:09:00,52.4,50.7,29.71,NNE,31,10.0,13.0,94,0.04,,---,0.18,VWS V14.01,2013-05-23 03:09:00,
2013-05-22 23:14:00,52.3,50.6,29.71,North,10,11.0,13.0,94,0.03,,---,0.18,VWS V14.01,2013-05-23 03:14:00,
2013-05-22 23:19:00,52.3,50.6,29.71,NNE,26,7.0,12.0,94,0.04,,---,0.19,VWS V14.01,2013-05-23 03:19:00,
2013-05-22 23:24:00,52.3,50.6,29.71,NNE,12,5.0,12.0,94,0.03,,---,0.19,VWS V14.01,2013-05-23 03:24:00,
2013-05-22 23:29:00,52.2,50.5,29.72,NNE,21,12.0,13.0,94,0.03,,---,0.19,VWS V14.01,2013-05-23 03:29:00,
2013-05-22 23:34:00,52.1,50.4,29.71,North,9,7.0,10.0,94,0.03,,---,0.19,VWS V14.01,2013-05-23 03:34:00,
2013-05-22 23:39:00,51.9,50.2,29.71,North,11,4.0,11.0,94,0.04,,---,0.20,VWS V14.01,2013-05-23 03:39:00,
2013-05-22 23:44:00,51.8,50.1,29.72,NNE,12,3.0,10.0,94,0.04,,---,0.20,VWS V14.01,2013-05-23 03:44:00,
2013-05-22 23:49:00,51.7,50.0,29.72,North,11,3.0,7.0,94,0.04,,---,0.20,VWS V14.01,2013-05-23 03:49:00,
2013-05-22 23:54:00,51.4,49.7,29.72,North,11,3.0,6.0,94,0.04,,---,0.20,VWS V14.01,2013-05-23 03:54:00,
2013-05-22 23:59:00,51.2,49.5,29.72,NNE,15,6.0,6.0,94,0.03,,---,0.20,VWS V14.01,2013-05-23 03:59:00,